createdAt,value
2022-08-04T00:00:26.061Z,9.00
2022-08-04T00:05:41.376Z,7.60
2022-08-04T00:10:49.552Z,8.20
2022-08-04T00:15:54.464Z,8.40
2022-08-04T00:21:05.518Z,7.40
2022-08-04T00:26:09.497Z,8.00
2022-08-04T00:31:13.137Z,8.00
2022-08-04T00:36:21.334Z,8.00
2022-08-04T00:41:31.725Z,6.20
2022-08-04T00:47:01.087Z,7.40
2022-08-04T00:52:32.750Z,7.00
2022-08-04T00:57:52.515Z,5.40
2022-08-04T01:03:10.908Z,6.00
2022-08-04T01:08:35.569Z,5.80
2022-08-04T01:13:55.710Z,8.00
2022-08-04T01:19:02.669Z,8.40
2022-08-04T01:24:20.611Z,7.00
2022-08-04T01:29:30.498Z,7.80
2022-08-04T01:34:52.401Z,7.00
2022-08-04T01:40:04.034Z,8.00
2022-08-04T01:45:11.351Z,6.60
2022-08-04T01:50:15.400Z,7.00
2022-08-04T01:55:18.430Z,7.75
2022-08-04T02:00:27.010Z,6.50
2022-08-04T02:06:04.023Z,7.40
2022-08-04T02:11:04.856Z,7.20
2022-08-04T02:16:17.518Z,7.00
2022-08-04T02:21:21.651Z,7.20
2022-08-04T02:26:29.295Z,8.20
2022-08-04T02:31:39.751Z,7.50
2022-08-04T02:36:44.063Z,9.40
2022-08-04T02:41:48.332Z,7.00
2022-08-04T02:46:54.334Z,6.40
2022-08-04T02:51:58.742Z,7.00
2022-08-04T02:57:02.375Z,7.50
2022-08-04T03:02:12.087Z,7.40
2022-08-04T03:07:59.353Z,7.40
2022-08-04T03:13:28.915Z,7.60
2022-08-04T03:19:17.829Z,7.00
2022-08-04T03:25:00.001Z,8.40
2022-08-04T03:30:08.917Z,9.00
2022-08-04T03:35:36.589Z,10.00
2022-08-04T03:41:04.802Z,9.60
2022-08-04T03:46:42.681Z,8.60
2022-08-04T03:52:16.023Z,9.00
2022-08-04T03:57:36.554Z,10.80
2022-08-04T04:03:28.570Z,9.20
2022-08-04T04:09:08.090Z,9.00
2022-08-04T04:14:41.914Z,9.40
2022-08-04T04:20:11.741Z,11.00
2022-08-04T04:25:26.827Z,11.00
2022-08-04T04:30:40.284Z,9.80
2022-08-04T04:35:58.895Z,9.20
2022-08-04T04:41:17.767Z,10.60
2022-08-04T04:46:33.216Z,10.40
2022-08-04T04:51:44.705Z,11.00
2022-08-04T04:56:51.857Z,10.60
2022-08-04T05:02:32.059Z,10.00
2022-08-04T05:07:58.568Z,11.20
2022-08-04T05:14:37.200Z,8.60
2022-08-04T05:18:47.845Z,11.20
2022-08-04T05:23:57.816Z,8.80
2022-08-04T05:29:05.824Z,9.80
2022-08-04T05:34:13.882Z,10.00
2022-08-04T05:39:20.580Z,9.40
2022-08-04T05:44:24.732Z,9.80
2022-08-04T05:49:30.308Z,9.60
2022-08-04T05:54:35.180Z,11.20
2022-08-04T05:59:42.318Z,9.40
2022-08-04T06:04:50.052Z,7.80
2022-08-04T06:09:52.980Z,8.00
2022-08-04T06:14:59.785Z,9.40
2022-08-04T06:20:19.281Z,9.20
2022-08-04T06:25:30.530Z,10.00
2022-08-04T06:30:34.376Z,8.60
2022-08-04T06:35:38.838Z,11.40
2022-08-04T06:40:42.498Z,10.00
2022-08-04T06:45:45.723Z,8.00
2022-08-04T06:51:24.725Z,8.60
2022-08-04T06:56:15.822Z,8.40
2022-08-04T07:01:21.704Z,8.60
2022-08-04T07:06:26.020Z,7.40
2022-08-04T07:11:29.552Z,7.50
2022-08-04T07:16:43.397Z,8.00
2022-08-04T07:22:18.853Z,7.00
2022-08-04T07:27:10.800Z,8.60
2022-08-04T07:32:14.701Z,8.60
2022-08-04T07:37:19.938Z,7.00
2022-08-04T07:42:23.379Z,8.00
2022-08-04T07:47:27.461Z,8.00
2022-08-04T07:52:32.459Z,8.00
2022-08-04T07:57:41.530Z,9.00
2022-08-04T08:02:49.333Z,7.20
2022-08-04T08:07:55.041Z,6.80
2022-08-04T08:12:58.533Z,6.80
2022-08-04T08:18:01.363Z,7.40
2022-08-04T08:23:06.071Z,7.20
2022-08-04T08:28:08.883Z,8.60
2022-08-04T08:33:16.165Z,8.00
2022-08-04T08:38:28.616Z,8.00
2022-08-04T08:44:00.192Z,6.80
2022-08-04T08:50:01.049Z,5.75
2022-08-04T08:55:20.025Z,6.25
2022-08-04T09:00:31.899Z,7.40
2022-08-04T09:05:58.665Z,5.75
2022-08-04T09:11:09.815Z,6.40
2022-08-04T09:16:19.001Z,8.00
2022-08-04T09:21:31.711Z,5.40
2022-08-04T09:26:46.568Z,5.60
2022-08-04T09:32:07.123Z,6.60
2022-08-04T09:37:18.276Z,7.00
2022-08-04T09:42:35.918Z,6.00
2022-08-04T09:47:47.688Z,6.50
2022-08-04T09:52:59.327Z,5.75
2022-08-04T09:58:10.018Z,6.00
2022-08-04T10:03:19.622Z,7.00
2022-08-04T10:08:38.015Z,5.50
2022-08-04T10:13:53.150Z,5.50
2022-08-04T10:19:07.964Z,6.50
2022-08-04T10:24:32.136Z,4.00
2022-08-04T10:29:43.911Z,4.50
2022-08-04T10:35:00.845Z,5.00
2022-08-04T10:40:25.689Z,3.75
2022-08-04T10:45:37.728Z,5.00
2022-08-04T10:50:53.098Z,5.00
2022-08-04T10:56:06.553Z,5.00
2022-08-04T11:02:01.282Z,4.00
2022-08-04T11:06:46.868Z,5.25
2022-08-04T11:12:00.737Z,4.75
2022-08-04T11:17:09.235Z,4.75
2022-08-04T11:22:16.537Z,5.00
2022-08-04T11:27:29.164Z,5.40
2022-08-04T11:32:42.239Z,5.00
2022-08-04T11:37:51.040Z,5.50
2022-08-04T11:42:59.160Z,5.00
2022-08-04T11:48:11.052Z,4.00
2022-08-04T11:53:19.344Z,5.00
2022-08-04T11:58:23.135Z,4.25
2022-08-04T12:03:37.646Z,4.00
2022-08-04T12:08:59.401Z,4.25
2022-08-04T12:14:11.152Z,5.00
2022-08-04T12:19:22.462Z,5.00
2022-08-04T12:24:32.512Z,5.00
2022-08-04T12:29:37.669Z,3.00
2022-08-04T12:34:45.835Z,4.00
2022-08-04T12:40:28.956Z,4.25
2022-08-04T12:45:15.647Z,5.00
2022-08-04T12:50:21.735Z,3.25
2022-08-04T12:55:29.720Z,4.75
2022-08-04T13:00:43.765Z,4.25
2022-08-04T13:05:53.989Z,4.50
2022-08-04T13:10:59.867Z,4.00
2022-08-04T13:16:08.479Z,4.50
2022-08-04T13:21:22.779Z,4.00
2022-08-04T13:26:42.821Z,5.00
2022-08-04T13:31:53.945Z,4.25
2022-08-04T13:36:59.436Z,3.75
2022-08-04T13:42:08.944Z,3.25
2022-08-04T13:47:16.488Z,4.25
2022-08-04T13:52:27.232Z,3.50
2022-08-04T13:57:32.465Z,3.75
2022-08-04T14:02:40.611Z,2.75
2022-08-04T14:07:48.264Z,3.25
2022-08-04T14:12:53.131Z,3.00
2022-08-04T14:17:56.103Z,4.00
2022-08-04T14:23:02.339Z,2.50
2022-08-04T14:28:06.036Z,2.75
2022-08-04T14:34:02.712Z,3.75
2022-08-04T14:38:47.411Z,3.25
2022-08-04T14:43:52.732Z,3.50
2022-08-04T14:49:04.245Z,2.50
2022-08-04T14:54:18.799Z,3.00
2022-08-04T14:59:23.489Z,3.00
2022-08-04T15:04:27.749Z,3.25
2022-08-04T15:09:32.828Z,3.50
2022-08-04T15:14:38.195Z,2.00
2022-08-04T15:19:41.721Z,2.25
2022-08-04T15:25:00.568Z,3.00
2022-08-04T15:30:06.393Z,3.00
2022-08-04T15:35:12.766Z,3.50
2022-08-04T15:40:26.921Z,3.25
2022-08-04T15:46:35.010Z,2.50
2022-08-04T15:51:14.203Z,4.00
2022-08-04T15:56:48.285Z,2.25
2022-08-04T16:02:45.890Z,2.00
2022-08-04T16:07:56.689Z,2.50
2022-08-04T16:13:08.570Z,3.00
2022-08-04T16:18:26.356Z,3.00
2022-08-04T16:24:07.553Z,3.00
2022-08-04T16:29:30.462Z,2.25
2022-08-04T16:34:48.155Z,2.25
2022-08-04T16:40:35.205Z,3.00
2022-08-04T16:45:52.538Z,2.25
2022-08-04T16:50:58.183Z,2.00
2022-08-04T16:56:10.771Z,3.00
2022-08-04T17:01:32.135Z,2.75
2022-08-04T17:06:38.711Z,2.00
2022-08-04T17:11:43.021Z,3.00
2022-08-04T17:16:47.132Z,2.00
2022-08-04T17:21:50.092Z,2.00
2022-08-04T17:26:54.473Z,2.50
2022-08-04T17:31:59.165Z,2.00
2022-08-04T17:42:30.274Z,1.00
2022-08-04T17:47:38.282Z,1.75
2022-08-04T17:52:45.439Z,2.25
2022-08-04T17:57:52.222Z,1.00
2022-08-04T18:02:57.055Z,1.50
2022-08-04T18:08:39.535Z,1.25
2022-08-04T18:13:42.313Z,1.50
2022-08-04T18:19:10.493Z,1.75
2022-08-04T18:24:14.018Z,2.00
2022-08-04T18:29:31.303Z,2.00
2022-08-04T18:34:40.747Z,2.00
2022-08-04T18:40:25.148Z,2.75
2022-08-04T18:45:20.350Z,3.00
2022-08-04T18:51:00.805Z,3.00
2022-08-04T18:55:56.536Z,3.00
2022-08-04T19:01:01.196Z,4.00
2022-08-04T19:06:07.510Z,2.25
2022-08-04T19:11:38.193Z,3.00
2022-08-04T19:16:34.944Z,3.00
2022-08-04T19:21:59.299Z,3.00
2022-08-04T19:27:07.050Z,3.25
2022-08-04T19:32:14.023Z,2.25
2022-08-04T19:37:57.491Z,6.00
2022-08-04T19:42:43.313Z,13.40
2022-08-04T19:48:12.101Z,9.60
2022-08-04T19:53:18.902Z,8.60
2022-08-04T19:58:26.317Z,7.80
2022-08-04T20:04:08.838Z,8.00
2022-08-04T20:08:53.708Z,7.60
2022-08-04T20:13:58.236Z,8.00
2022-08-04T20:19:04.196Z,8.40
2022-08-04T20:24:41.515Z,8.00
2022-08-04T20:29:40.300Z,11.80
2022-08-04T20:34:43.794Z,8.60
2022-08-04T20:39:54.894Z,9.20
2022-08-04T20:44:58.052Z,10.40
2022-08-04T20:50:01.682Z,10.40
2022-08-04T20:55:07.095Z,11.00
2022-08-04T21:00:13.127Z,10.80
2022-08-04T21:05:16.484Z,9.80
2022-08-04T21:10:21.987Z,10.00
2022-08-04T21:15:50.748Z,10.40
2022-08-04T21:20:48.715Z,9.40
2022-08-04T21:25:58.130Z,10.20
2022-08-04T21:31:02.519Z,10.40
2022-08-04T21:36:14.955Z,9.80
2022-08-04T21:41:24.923Z,10.20
2022-08-04T21:46:31.256Z,10.40
2022-08-04T21:51:57.909Z,10.60
2022-08-04T21:56:59.633Z,10.20
2022-08-04T22:02:06.492Z,10.00
2022-08-04T22:07:10.606Z,11.20
2022-08-04T22:12:14.890Z,10.80
2022-08-04T22:17:25.496Z,11.00
2022-08-04T22:22:29.431Z,8.80
2022-08-04T22:27:55.046Z,10.60
2022-08-04T22:32:58.279Z,11.00
2022-08-04T22:38:07.787Z,9.20
2022-08-04T22:43:31.678Z,10.00
2022-08-04T22:48:38.327Z,10.00
2022-08-04T22:53:41.771Z,10.60
2022-08-04T22:58:53.129Z,9.00
2022-08-04T23:03:57.432Z,8.20
2022-08-04T23:09:00.112Z,10.20
2022-08-04T23:14:06.186Z,9.00
2022-08-04T23:19:09.503Z,9.80
2022-08-04T23:24:12.984Z,9.80
2022-08-04T23:29:17.570Z,8.40
2022-08-04T23:34:20.274Z,9.60
2022-08-04T23:39:23.071Z,10.60
2022-08-04T23:44:28.825Z,10.20
2022-08-04T23:49:43.348Z,10.20
2022-08-04T23:54:47.360Z,10.00
2022-08-04T23:59:55.021Z,11.40
